createdAt,value
2019-05-14T00:02:16.960Z,5.70
2019-05-14T00:04:51.223Z,5.80
2019-05-14T00:07:24.239Z,5.80
2019-05-14T00:09:56.987Z,5.80
2019-05-14T00:12:31.447Z,5.70
2019-05-14T00:15:04.821Z,5.70
2019-05-14T00:17:38.537Z,5.70
2019-05-14T00:20:13.228Z,5.70
2019-05-14T00:22:52.207Z,5.70
2019-05-14T00:25:25.091Z,5.80
2019-05-14T00:27:57.811Z,5.90
2019-05-14T00:30:31.625Z,5.90
2019-05-14T00:33:04.609Z,5.90
2019-05-14T00:35:37.364Z,5.80
2019-05-14T00:38:11.931Z,5.80
2019-05-14T00:40:46.517Z,5.80
2019-05-14T00:43:21.510Z,5.80
2019-05-14T00:45:53.607Z,5.90
2019-05-14T00:48:27.353Z,6.00
2019-05-14T00:51:02.653Z,5.90
2019-05-14T00:53:35.403Z,5.90
2019-05-14T00:56:11.034Z,6.00
2019-05-14T00:58:43.920Z,6.00
2019-05-14T01:01:16.663Z,6.00
2019-05-14T01:03:49.407Z,5.80
2019-05-14T01:06:22.237Z,5.90
2019-05-14T01:08:55.011Z,5.80
2019-05-14T01:11:27.693Z,5.90
2019-05-14T01:14:01.700Z,5.70
2019-05-14T01:16:34.688Z,5.50
2019-05-14T01:19:07.448Z,5.70
2019-05-14T01:21:41.765Z,5.60
2019-05-14T01:24:14.635Z,5.50
2019-05-14T01:26:47.392Z,5.50
2019-05-14T01:29:21.975Z,5.50
2019-05-14T01:31:54.588Z,5.60
2019-05-14T01:34:27.313Z,5.60
2019-05-14T01:37:02.494Z,5.80
2019-05-14T01:39:35.502Z,5.70
2019-05-14T01:42:08.268Z,5.80
2019-05-14T01:44:41.401Z,5.80
2019-05-14T01:47:14.209Z,5.90
2019-05-14T01:49:46.964Z,5.80
2019-05-14T01:52:21.816Z,5.90
2019-05-14T01:54:54.122Z,5.90
2019-05-14T01:57:26.948Z,6.00
2019-05-14T02:00:02.095Z,6.00
2019-05-14T02:02:34.130Z,6.00
2019-05-14T02:05:08.534Z,5.90
2019-05-14T02:07:42.018Z,6.00
2019-05-14T02:10:15.493Z,6.00
2019-05-14T02:12:48.257Z,6.00
2019-05-14T02:15:21.462Z,6.00
2019-05-14T02:17:55.516Z,6.10
2019-05-14T02:20:32.124Z,6.00
2019-05-14T02:23:06.923Z,6.00
2019-05-14T02:25:41.314Z,6.00
2019-05-14T02:28:14.261Z,6.00
2019-05-14T02:30:56.410Z,5.80
2019-05-14T02:33:21.391Z,5.80
2019-05-14T02:35:54.154Z,5.90
2019-05-14T02:38:29.606Z,5.90
2019-05-14T02:41:01.650Z,5.90
2019-05-14T02:43:34.391Z,5.90
2019-05-14T02:46:15.908Z,5.90
2019-05-14T02:48:41.664Z,5.90
2019-05-14T02:51:14.478Z,5.90
2019-05-14T02:53:49.774Z,5.90
2019-05-14T02:56:21.625Z,5.90
2019-05-14T02:58:54.411Z,5.90
2019-05-14T03:01:29.954Z,5.90
2019-05-14T03:04:02.584Z,6.00
2019-05-14T03:06:35.292Z,6.00
2019-05-14T03:09:09.660Z,5.90
2019-05-14T03:11:42.533Z,6.00
2019-05-14T03:14:15.273Z,5.90
2019-05-14T03:16:49.508Z,6.00
2019-05-14T03:19:22.369Z,6.00
2019-05-14T03:21:55.203Z,5.90
2019-05-14T03:24:28.850Z,6.00
2019-05-14T03:27:01.728Z,5.90
2019-05-14T03:29:39.848Z,5.90
2019-05-14T03:32:13.626Z,5.90
2019-05-14T03:34:45.973Z,5.90
2019-05-14T03:37:23.511Z,5.90
2019-05-14T03:39:53.183Z,5.90
2019-05-14T03:42:29.008Z,6.00
2019-05-14T03:45:00.314Z,5.90
2019-05-14T03:47:33.014Z,6.00
2019-05-14T03:50:09.875Z,6.10
2019-05-14T03:52:40.855Z,6.00
2019-05-14T03:55:13.877Z,6.00
2019-05-14T03:57:50.056Z,6.10
2019-05-14T04:00:42.763Z,6.00
2019-05-14T04:03:29.207Z,6.00
2019-05-14T04:06:02.247Z,5.90
2019-05-14T04:08:41.760Z,5.90
2019-05-14T04:11:20.244Z,5.90
2019-05-14T04:13:55.461Z,5.90
2019-05-14T04:16:31.148Z,5.90
2019-05-14T04:19:05.608Z,5.90
2019-05-14T04:21:40.078Z,6.00
2019-05-14T04:24:15.303Z,5.90
2019-05-14T04:27:02.118Z,5.90
2019-05-14T04:29:30.609Z,5.60
2019-05-14T04:32:09.491Z,5.80
2019-05-14T04:34:41.644Z,5.80
2019-05-14T04:37:14.990Z,5.80
2019-05-14T04:39:50.345Z,5.80
2019-05-14T04:42:24.951Z,5.80
2019-05-14T04:45:02.453Z,5.80
2019-05-14T04:47:37.256Z,5.80
2019-05-14T04:50:10.532Z,5.80
2019-05-14T04:52:42.519Z,5.80
2019-05-14T04:55:15.343Z,5.90
2019-05-14T04:57:50.020Z,5.90
2019-05-14T05:00:22.560Z,6.00
2019-05-14T05:02:55.354Z,6.10
2019-05-14T05:05:29.959Z,6.10
2019-05-14T05:08:04.257Z,6.10
2019-05-14T05:10:39.810Z,6.10
2019-05-14T05:13:12.784Z,6.10
2019-05-14T05:15:48.493Z,6.10
2019-05-14T05:18:21.733Z,6.20
2019-05-14T05:20:54.412Z,6.20
2019-05-14T05:23:28.195Z,6.20
2019-05-14T05:26:01.354Z,6.20
2019-05-14T05:28:34.108Z,6.10
2019-05-14T05:31:09.345Z,6.00
2019-05-14T05:33:42.273Z,6.00
2019-05-14T05:36:15.008Z,6.10
2019-05-14T05:38:49.044Z,6.20
2019-05-14T05:41:22.172Z,6.10
2019-05-14T05:43:54.899Z,6.10
2019-05-14T05:46:28.508Z,6.10
2019-05-14T05:49:01.431Z,6.10
2019-05-14T05:51:34.220Z,6.10
2019-05-14T05:54:09.091Z,6.10
2019-05-14T05:56:41.573Z,6.10
2019-05-14T05:59:14.424Z,6.10
2019-05-14T06:01:50.077Z,6.10
2019-05-14T06:04:22.019Z,6.10
2019-05-14T06:06:54.862Z,6.10
2019-05-14T06:09:28.673Z,6.20
2019-05-14T06:12:01.634Z,6.10
2019-05-14T06:14:34.462Z,6.10
2019-05-14T06:17:08.575Z,6.20
2019-05-14T06:19:42.661Z,6.20
2019-05-14T06:22:18.623Z,6.20
2019-05-14T06:24:52.559Z,6.30
2019-05-14T06:27:43.364Z,6.20
2019-05-14T06:30:21.915Z,6.20
2019-05-14T06:32:54.694Z,6.20
2019-05-14T06:35:28.484Z,6.30
2019-05-14T06:38:03.356Z,6.40
2019-05-14T06:40:36.311Z,6.40
2019-05-14T06:43:09.272Z,6.50
2019-05-14T06:45:42.214Z,6.40
2019-05-14T06:48:28.144Z,6.50
2019-05-14T06:50:52.127Z,6.50
2019-05-14T06:53:24.904Z,6.50
2019-05-14T06:56:03.101Z,6.50
2019-05-14T06:58:38.655Z,6.50
2019-05-14T07:01:10.302Z,6.40
2019-05-14T07:03:44.436Z,6.50
2019-05-14T07:06:18.557Z,6.60
2019-05-14T07:08:52.801Z,6.60
2019-05-14T07:11:29.267Z,6.70
2019-05-14T07:14:03.806Z,6.90
2019-05-14T07:16:39.038Z,6.80
2019-05-14T07:19:12.040Z,6.80
2019-05-14T07:21:44.804Z,6.60
2019-05-14T07:24:19.629Z,6.60
2019-05-14T07:26:52.197Z,6.70
2019-05-14T07:29:25.992Z,6.60
2019-05-14T07:32:00.395Z,6.80
2019-05-14T07:34:33.314Z,6.80
2019-05-14T07:37:06.092Z,7.00
2019-05-14T07:39:39.743Z,7.10
2019-05-14T07:42:12.519Z,7.10
2019-05-14T07:44:48.511Z,7.10
2019-05-14T07:47:21.515Z,6.90
2019-05-14T07:49:54.252Z,6.90
2019-05-14T07:52:28.433Z,7.00
2019-05-14T07:55:01.433Z,7.10
2019-05-14T07:57:34.180Z,7.10
2019-05-14T08:00:14.415Z,7.20
2019-05-14T08:02:49.114Z,7.20
2019-05-14T08:05:21.522Z,7.40
2019-05-14T08:07:54.221Z,7.50
2019-05-14T08:10:28.871Z,7.40
2019-05-14T08:13:01.349Z,7.50
2019-05-14T08:15:34.133Z,7.70
2019-05-14T08:18:08.119Z,7.60
2019-05-14T08:20:42.106Z,7.70
2019-05-14T08:23:18.270Z,7.70
2019-05-14T08:25:50.442Z,7.70
2019-05-14T08:28:25.095Z,7.50
2019-05-14T08:30:58.516Z,7.60
2019-05-14T08:33:31.505Z,7.70
2019-05-14T08:36:04.302Z,7.80
2019-05-14T08:38:38.343Z,7.70
2019-05-14T08:41:12.013Z,7.40
2019-05-14T08:43:44.864Z,7.20
2019-05-14T08:46:19.218Z,7.10
2019-05-14T08:48:51.973Z,7.10
2019-05-14T08:51:24.773Z,7.10
2019-05-14T08:53:59.257Z,7.10
2019-05-14T08:56:32.090Z,7.10
2019-05-14T08:59:04.926Z,7.10
2019-05-14T09:01:39.002Z,7.10
2019-05-14T09:04:13.404Z,7.20
2019-05-14T09:06:48.769Z,7.20
2019-05-14T09:09:22.308Z,7.20
2019-05-14T09:11:56.062Z,7.10
2019-05-14T09:14:28.773Z,7.00
2019-05-14T09:17:02.242Z,6.90
2019-05-14T09:19:35.013Z,7.00
2019-05-14T09:22:10.972Z,7.00
2019-05-14T09:24:43.819Z,7.00
2019-05-14T09:27:19.045Z,7.00
2019-05-14T09:29:50.935Z,7.10
2019-05-14T09:32:23.821Z,7.20
2019-05-14T09:34:58.931Z,7.20
2019-05-14T09:37:32.963Z,7.30
2019-05-14T09:40:11.220Z,7.40
2019-05-14T09:42:45.518Z,7.40
2019-05-14T09:45:19.355Z,7.50
2019-05-14T09:47:53.342Z,7.40
2019-05-14T09:50:33.861Z,7.50
2019-05-14T09:53:09.784Z,7.40
2019-05-14T09:55:43.521Z,7.30
2019-05-14T09:58:20.029Z,7.30
2019-05-14T10:00:52.561Z,7.40
2019-05-14T10:03:26.312Z,7.60
2019-05-14T10:05:59.968Z,7.60
2019-05-14T10:08:33.678Z,7.60
2019-05-14T10:11:07.533Z,7.70
2019-05-14T10:13:41.098Z,7.60
2019-05-14T10:16:14.818Z,7.50
2019-05-14T10:18:50.827Z,7.40
2019-05-14T10:21:23.820Z,7.40
2019-05-14T10:23:58.421Z,7.30
2019-05-14T10:26:32.353Z,7.40
2019-05-14T10:29:08.507Z,7.30
2019-05-14T10:31:41.253Z,7.30
2019-05-14T10:34:15.256Z,7.50
2019-05-14T10:36:49.941Z,7.60
2019-05-14T10:39:25.672Z,7.60
2019-05-14T10:42:02.273Z,7.80
2019-05-14T10:44:38.478Z,8.10
2019-05-14T10:47:11.228Z,8.00
2019-05-14T10:49:44.919Z,8.00
2019-05-14T10:52:19.854Z,8.10
2019-05-14T10:54:56.207Z,8.00
2019-05-14T10:57:29.943Z,8.10
2019-05-14T11:00:03.791Z,8.10
2019-05-14T11:02:38.819Z,8.00
2019-05-14T11:05:14.291Z,7.90
2019-05-14T11:07:48.831Z,7.90
2019-05-14T11:10:22.764Z,7.70
2019-05-14T11:12:59.100Z,7.50
2019-05-14T11:15:31.697Z,7.50
2019-05-14T11:18:05.380Z,7.50
2019-05-14T11:20:42.097Z,7.50
2019-05-14T11:23:18.272Z,7.50
2019-05-14T11:25:49.604Z,7.60
2019-05-14T11:28:23.253Z,7.70
2019-05-14T11:30:56.957Z,7.70
2019-05-14T11:33:31.063Z,7.70
2019-05-14T11:36:04.753Z,7.80
2019-05-14T11:38:38.389Z,7.70
2019-05-14T11:41:12.024Z,7.60
2019-05-14T11:43:45.697Z,7.40
2019-05-14T11:46:29.744Z,7.40
2019-05-14T11:48:55.344Z,7.30
2019-05-14T11:55:09.817Z,7.50
2019-05-14T11:57:43.494Z,7.50
2019-05-14T12:00:19.593Z,7.50
2019-05-14T12:02:53.476Z,7.50
2019-05-14T12:05:27.163Z,7.50
2019-05-14T12:08:00.805Z,7.40
2019-05-14T12:10:34.510Z,7.50
2019-05-14T12:13:08.623Z,7.50
2019-05-14T12:15:43.347Z,7.60
2019-05-14T12:18:18.606Z,7.60
2019-05-14T12:20:52.392Z,7.70
2019-05-14T12:23:39.403Z,7.70
2019-05-14T12:26:12.532Z,7.60
2019-05-14T12:36:04.711Z,7.70
2019-05-14T12:38:38.380Z,7.70
2019-05-14T12:41:12.150Z,7.70
2019-05-14T12:43:46.683Z,7.70
2019-05-14T12:46:20.875Z,7.70
2019-05-14T12:48:54.482Z,7.60
2019-05-14T12:51:28.210Z,7.50
2019-05-14T12:54:01.775Z,7.60
2019-05-14T13:00:15.114Z,7.80
2019-05-14T13:02:49.061Z,7.90
2019-05-14T13:05:22.892Z,7.90
2019-05-14T13:07:57.987Z,7.90
2019-05-14T13:10:31.903Z,7.80
2019-05-14T13:18:33.505Z,8.00
2019-05-14T13:19:11.659Z,8.10
2019-05-14T13:21:48.697Z,8.00
2019-05-14T13:24:21.214Z,8.10
2019-05-14T13:26:55.270Z,8.20
2019-05-14T13:29:29.223Z,8.10
2019-05-14T13:32:04.013Z,8.20
2019-05-14T13:34:42.849Z,8.20
2019-05-14T13:37:16.866Z,8.20
2019-05-14T13:39:53.329Z,8.20
2019-05-14T13:42:29.594Z,8.10
2019-05-14T13:45:06.145Z,8.10
2019-05-14T13:47:40.246Z,8.00
2019-05-14T13:50:15.295Z,8.10
2019-05-14T13:52:59.775Z,8.00
2019-05-14T13:55:26.495Z,8.00
2019-05-14T13:58:00.103Z,8.10
2019-05-14T14:00:34.070Z,8.10
2019-05-14T14:03:10.115Z,8.20
2019-05-14T14:05:43.379Z,8.20
2019-05-14T14:08:19.331Z,8.10
2019-05-14T14:10:54.298Z,8.10
2019-05-14T14:13:28.548Z,8.20
2019-05-14T14:16:03.661Z,8.20
2019-05-14T14:18:39.358Z,8.30
2019-05-14T14:21:12.763Z,8.30
2019-05-14T14:23:49.510Z,8.30
2019-05-14T14:26:22.409Z,8.30
2019-05-14T14:28:56.135Z,8.30
2019-05-14T14:31:30.696Z,8.20
2019-05-14T14:34:04.279Z,8.20
2019-05-14T14:36:39.615Z,8.10
2019-05-14T14:39:14.196Z,8.00
2019-05-14T14:41:49.621Z,8.00
2019-05-14T14:44:23.742Z,8.00
2019-05-14T14:46:57.866Z,8.00
2019-05-14T14:49:31.923Z,8.00
2019-05-14T14:52:05.930Z,8.10
2019-05-14T14:54:39.700Z,8.10
2019-05-14T14:57:13.294Z,8.10
2019-05-14T14:59:48.577Z,8.20
2019-05-14T15:02:22.576Z,8.20
2019-05-14T15:04:59.348Z,8.20
2019-05-14T15:07:31.738Z,8.20
2019-05-14T15:10:08.698Z,8.20
2019-05-14T15:12:42.699Z,8.20
2019-05-14T15:15:18.659Z,8.10
2019-05-14T15:17:51.948Z,8.00
2019-05-14T15:20:28.802Z,8.10
2019-05-14T15:23:01.212Z,8.10
2019-05-14T15:25:35.085Z,8.10
2019-05-14T15:28:09.431Z,8.10
2019-05-14T15:30:43.330Z,8.20
2019-05-14T15:33:18.918Z,8.20
2019-05-14T15:35:52.524Z,8.10
2019-05-14T15:38:30.227Z,8.20
2019-05-14T15:41:01.779Z,8.10
2019-05-14T15:43:35.439Z,8.10
2019-05-14T15:46:09.045Z,8.10
2019-05-14T15:48:43.779Z,8.10
2019-05-14T15:51:20.555Z,8.00
2019-05-14T15:54:10.985Z,8.00
2019-05-14T15:56:30.477Z,8.00
2019-05-14T15:59:04.149Z,8.00
2019-05-14T16:01:39.816Z,8.00
2019-05-14T16:04:14.752Z,7.90
2019-05-14T16:06:48.970Z,8.00
2019-05-14T16:09:24.219Z,8.00
2019-05-14T16:11:58.899Z,8.00
2019-05-14T16:14:32.690Z,8.00
2019-05-14T16:17:11.259Z,8.10
2019-05-14T16:19:42.677Z,8.00
2019-05-14T16:22:19.131Z,8.00
2019-05-14T16:24:56.863Z,7.90
2019-05-14T16:27:29.841Z,7.80
2019-05-14T16:30:09.869Z,7.70
2019-05-14T16:32:43.925Z,7.70
2019-05-14T16:35:21.298Z,7.70
2019-05-14T16:38:23.818Z,7.70
2019-05-14T16:41:01.376Z,7.60
2019-05-14T16:43:39.862Z,7.50
2019-05-14T16:46:13.972Z,7.50
2019-05-14T16:48:48.851Z,7.50
2019-05-14T16:51:22.774Z,7.60
2019-05-14T16:53:56.470Z,7.50
2019-05-14T16:56:30.515Z,7.60
2019-05-14T16:59:04.146Z,7.50
2019-05-14T17:01:38.801Z,7.50
2019-05-14T17:04:12.353Z,7.50
2019-05-14T17:06:45.938Z,7.50
2019-05-14T17:09:20.129Z,7.40
2019-05-14T17:11:53.689Z,7.40
2019-05-14T17:14:29.268Z,7.40
2019-05-14T17:17:02.636Z,7.40
2019-05-14T17:19:38.431Z,7.30
2019-05-14T17:22:23.993Z,7.30
2019-05-14T17:24:49.094Z,7.30
2019-05-14T17:27:22.800Z,7.30
2019-05-14T17:29:58.830Z,7.30
2019-05-14T17:32:33.603Z,7.30
2019-05-14T17:35:08.783Z,7.30
2019-05-14T17:37:43.428Z,7.40
2019-05-14T17:40:17.485Z,7.30
2019-05-14T17:42:51.263Z,7.20
2019-05-14T17:45:28.482Z,7.20
2019-05-14T17:48:02.536Z,7.20
2019-05-14T17:50:38.420Z,7.20
2019-05-14T17:53:12.143Z,7.20
2019-05-14T17:55:48.201Z,7.20
2019-05-14T17:58:21.135Z,7.10
2019-05-14T18:00:54.693Z,7.10
2019-05-14T18:03:29.146Z,7.00
2019-05-14T18:06:02.977Z,7.00
2019-05-14T18:08:36.578Z,7.00
2019-05-14T18:11:10.262Z,7.00
2019-05-14T18:13:43.994Z,7.00
2019-05-14T18:16:19.211Z,6.90
2019-05-14T18:18:53.136Z,6.90
2019-05-14T18:21:28.450Z,6.90
2019-05-14T18:24:03.352Z,7.00
2019-05-14T18:26:38.601Z,7.00
2019-05-14T18:29:14.318Z,6.90
2019-05-14T18:31:53.628Z,6.80
2019-05-14T18:34:28.404Z,6.90
2019-05-14T18:37:01.808Z,6.90
2019-05-14T18:39:39.462Z,6.90
2019-05-14T18:42:12.311Z,6.80
2019-05-14T18:44:49.835Z,6.80
2019-05-14T18:47:23.020Z,6.70
2019-05-14T18:49:59.568Z,6.70
2019-05-14T18:52:32.964Z,6.70
2019-05-14T18:55:09.336Z,6.80
2019-05-14T18:57:42.928Z,6.80
2019-05-14T19:00:18.732Z,6.80
2019-05-14T19:02:52.424Z,6.80
2019-05-14T19:05:26.136Z,6.90
2019-05-14T19:07:59.750Z,6.80
2019-05-14T19:10:33.413Z,6.90
2019-05-14T19:13:08.799Z,6.90
2019-05-14T19:15:42.271Z,6.80
2019-05-14T19:18:15.906Z,6.80
2019-05-14T19:20:49.562Z,6.80
2019-05-14T19:23:23.138Z,6.80
2019-05-14T19:25:58.942Z,6.80
2019-05-14T19:28:31.933Z,6.90
2019-05-14T19:31:05.559Z,6.90
2019-05-14T19:33:39.205Z,6.90
2019-05-14T19:36:18.739Z,6.90
2019-05-14T19:38:52.581Z,6.80
2019-05-14T19:41:27.776Z,6.80
2019-05-14T19:44:01.659Z,6.80
2019-05-14T19:46:35.384Z,6.80
2019-05-14T19:49:09.042Z,6.80
2019-05-14T19:51:42.673Z,6.80
2019-05-14T19:54:19.179Z,6.90
2019-05-14T19:56:57.140Z,6.90
2019-05-14T19:59:28.794Z,6.90
2019-05-14T20:02:02.307Z,7.10
2019-05-14T20:04:35.989Z,7.00
2019-05-14T20:07:09.682Z,7.00
2019-05-14T20:09:43.372Z,7.00
2019-05-14T20:12:18.223Z,7.00
2019-05-14T20:14:52.034Z,7.00
2019-05-14T20:17:25.771Z,7.00
2019-05-14T20:20:00.159Z,7.00
2019-05-14T20:22:33.867Z,7.00
2019-05-14T20:25:08.973Z,7.00
2019-05-14T20:27:42.522Z,7.00
2019-05-14T20:30:18.791Z,7.10
2019-05-14T20:32:52.644Z,7.10
2019-05-14T20:35:34.333Z,7.10
2019-05-14T20:38:02.492Z,7.10
2019-05-14T20:40:38.010Z,7.10
2019-05-14T20:43:11.424Z,7.10
2019-05-14T20:45:45.025Z,7.10
2019-05-14T20:48:19.080Z,7.10
2019-05-14T20:50:52.854Z,7.10
2019-05-14T20:53:29.134Z,7.20
2019-05-14T20:56:03.930Z,7.10
2019-05-14T20:58:48.244Z,7.10
2019-05-14T21:01:22.006Z,7.20
2019-05-14T21:03:55.557Z,7.20
2019-05-14T21:06:29.193Z,7.20
2019-05-14T21:09:02.790Z,7.20
2019-05-14T21:11:38.398Z,7.20
2019-05-14T21:14:13.704Z,7.20
2019-05-14T21:16:49.334Z,7.20
2019-05-14T21:19:23.009Z,7.30
2019-05-14T21:21:58.143Z,7.20
2019-05-14T21:24:32.703Z,7.20
2019-05-14T21:27:06.400Z,7.20
2019-05-14T21:29:40.132Z,7.20
2019-05-14T21:32:13.744Z,7.20
2019-05-14T21:34:49.122Z,7.20
2019-05-14T21:37:22.990Z,7.20
2019-05-14T21:39:58.258Z,7.30
2019-05-14T21:42:31.893Z,7.20
2019-05-14T21:45:09.696Z,7.20
2019-05-14T21:47:42.432Z,7.20
2019-05-14T21:50:18.148Z,7.20
2019-05-14T21:52:51.513Z,7.20
2019-05-14T21:55:25.218Z,7.20
2019-05-14T21:57:58.922Z,7.20
2019-05-14T22:00:41.883Z,7.30
2019-05-14T22:03:15.393Z,7.30
2019-05-14T22:05:51.717Z,7.30
2019-05-14T22:08:24.492Z,7.30
2019-05-14T22:10:58.813Z,7.30
2019-05-14T22:13:32.550Z,7.30
2019-05-14T22:16:08.376Z,7.30
2019-05-14T22:18:41.544Z,7.30
2019-05-14T22:21:15.209Z,7.30
2019-05-14T22:23:48.772Z,7.30
2019-05-14T22:26:22.463Z,7.30
2019-05-14T22:28:58.158Z,7.30
2019-05-14T22:31:31.312Z,7.30
2019-05-14T22:34:04.972Z,7.30
2019-05-14T22:36:38.879Z,7.30
2019-05-14T22:39:12.522Z,7.40
2019-05-14T22:41:46.214Z,7.40
2019-05-14T22:44:19.896Z,7.40
2019-05-14T22:46:53.590Z,7.40
2019-05-14T22:49:28.707Z,7.50
2019-05-14T22:52:02.399Z,7.40
2019-05-14T22:54:38.445Z,7.40
2019-05-14T22:57:11.153Z,7.50
2019-05-14T22:59:44.803Z,7.50
2019-05-14T23:02:19.313Z,7.50
2019-05-14T23:04:53.168Z,7.50
2019-05-14T23:07:27.771Z,7.50
2019-05-14T23:10:01.413Z,7.40
2019-05-14T23:12:34.920Z,7.40
2019-05-14T23:15:09.865Z,7.50
2019-05-14T23:17:43.453Z,7.50
2019-05-14T23:20:19.412Z,7.50
2019-05-14T23:22:52.422Z,7.50
2019-05-14T23:25:26.094Z,7.50
2019-05-14T23:27:59.684Z,7.60
2019-05-14T23:30:34.946Z,7.60
2019-05-14T23:33:08.538Z,7.60
2019-05-14T23:35:42.082Z,7.60
2019-05-14T23:38:16.170Z,7.60
2019-05-14T23:40:50.880Z,7.60
2019-05-14T23:43:24.464Z,7.60
2019-05-14T23:45:58.580Z,7.70
2019-05-14T23:48:32.190Z,7.60
2019-05-14T23:51:08.438Z,7.60
2019-05-14T23:53:42.002Z,7.70
2019-05-14T23:56:16.349Z,7.60
2019-05-14T23:58:55.735Z,7.70
